createdAt,value
2023-12-14T00:01:33.912Z,97.71
2023-12-14T00:04:01.878Z,97.64
2023-12-14T00:06:29.699Z,97.51
2023-12-14T00:08:57.503Z,97.21
2023-12-14T00:11:26.759Z,98.04
2023-12-14T00:13:54.670Z,98.89
2023-12-14T00:16:22.725Z,98.99
2023-12-14T00:18:50.703Z,98.47
2023-12-14T00:21:18.599Z,97.24
2023-12-14T00:23:46.528Z,98.54
2023-12-14T00:26:14.527Z,97.83
2023-12-14T00:28:43.764Z,97.35
2023-12-14T00:31:11.833Z,98.38
2023-12-14T00:33:39.804Z,98.16
2023-12-14T00:36:08.279Z,98.52
2023-12-14T00:38:36.099Z,98.62
2023-12-14T00:41:04.360Z,98.33
2023-12-14T00:43:32.181Z,98.23
2023-12-14T00:46:01.543Z,98.00
2023-12-14T00:48:29.419Z,98.33
2023-12-14T00:50:57.268Z,97.99
2023-12-14T00:53:25.131Z,98.20
2023-12-14T00:55:53.055Z,98.37
2023-12-14T00:58:20.998Z,98.09
2023-12-14T01:00:48.884Z,98.55
2023-12-14T01:03:18.163Z,97.56
2023-12-14T01:05:46.139Z,98.22
2023-12-14T01:08:14.026Z,97.64
2023-12-14T01:10:41.956Z,98.11
2023-12-14T01:13:10.114Z,97.82
2023-12-14T01:15:37.986Z,97.43
2023-12-14T01:18:05.941Z,97.07
2023-12-14T01:20:35.435Z,97.61
2023-12-14T01:23:03.414Z,97.56
2023-12-14T01:25:31.419Z,97.70
2023-12-14T01:27:59.438Z,97.18
2023-12-14T01:30:27.289Z,96.73
2023-12-14T01:32:56.085Z,96.92
2023-12-14T01:35:23.963Z,97.55
2023-12-14T01:37:53.217Z,97.03
2023-12-14T01:40:21.884Z,97.81
2023-12-14T01:42:49.787Z,98.26
2023-12-14T01:45:17.864Z,98.35
2023-12-14T01:47:46.151Z,98.05
2023-12-14T01:50:14.158Z,98.44
2023-12-14T01:52:42.145Z,98.23
2023-12-14T01:55:11.433Z,98.23
2023-12-14T01:57:39.327Z,99.15
2023-12-14T02:00:08.947Z,99.00
2023-12-14T02:02:39.142Z,98.76
2023-12-14T02:05:07.423Z,98.52
2023-12-14T02:07:35.689Z,98.12
2023-12-14T02:10:03.578Z,97.83
2023-12-14T02:12:34.874Z,98.71
2023-12-14T02:15:02.914Z,98.35
2023-12-14T02:17:30.871Z,98.04
2023-12-14T02:19:59.502Z,98.41
2023-12-14T02:22:27.347Z,98.87
2023-12-14T02:24:56.501Z,97.37
2023-12-14T02:27:24.385Z,97.31
2023-12-14T02:29:52.272Z,98.24
2023-12-14T02:32:21.588Z,97.30
2023-12-14T02:34:50.437Z,98.26
2023-12-14T02:37:18.260Z,97.72
2023-12-14T02:39:48.389Z,98.33
2023-12-14T02:42:17.598Z,96.77
2023-12-14T02:44:45.569Z,97.90
2023-12-14T02:47:13.422Z,97.94
2023-12-14T02:49:41.313Z,98.02
2023-12-14T02:52:09.291Z,98.10
2023-12-14T02:54:38.282Z,98.30
2023-12-14T02:57:06.564Z,97.72
2023-12-14T02:59:35.753Z,98.29
2023-12-14T03:02:03.840Z,97.92
2023-12-14T03:04:31.846Z,97.60
2023-12-14T03:07:03.388Z,98.49
2023-12-14T03:09:31.189Z,98.23
2023-12-14T03:11:59.032Z,97.96
2023-12-14T03:14:26.894Z,97.94
2023-12-14T03:16:56.060Z,98.04
2023-12-14T03:19:24.111Z,97.32
2023-12-14T03:21:51.978Z,97.34
2023-12-14T03:24:19.909Z,97.16
2023-12-14T03:26:47.806Z,97.07
2023-12-14T03:29:15.821Z,97.86
2023-12-14T03:31:43.857Z,98.17
2023-12-14T03:34:13.941Z,97.83
2023-12-14T03:36:41.987Z,98.17
2023-12-14T03:39:09.796Z,98.81
2023-12-14T03:41:37.652Z,98.79
2023-12-14T03:44:06.028Z,98.75
2023-12-14T03:46:35.312Z,98.46
2023-12-14T03:49:03.581Z,98.58
2023-12-14T03:51:33.553Z,98.50
2023-12-14T03:54:01.419Z,98.94
2023-12-14T03:56:29.281Z,98.91
2023-12-14T03:58:58.299Z,99.02
2023-12-14T04:01:26.156Z,98.74
2023-12-14T04:03:54.055Z,98.91
2023-12-14T04:06:21.865Z,98.72
2023-12-14T04:08:51.077Z,99.55
2023-12-14T04:11:18.965Z,99.03
2023-12-14T04:13:46.877Z,99.85
2023-12-14T04:16:14.704Z,99.36
2023-12-14T04:18:42.622Z,99.35
2023-12-14T04:21:10.547Z,99.26
2023-12-14T04:23:38.413Z,99.62
2023-12-14T04:26:08.710Z,99.41
2023-12-14T04:28:36.633Z,100.00
2023-12-14T04:31:04.812Z,100.00
2023-12-14T04:33:33.214Z,100.00
2023-12-14T04:36:01.118Z,100.00
2023-12-14T04:38:28.967Z,100.00
2023-12-14T04:40:56.909Z,100.00
2023-12-14T04:43:26.160Z,100.00
2023-12-14T04:45:54.536Z,100.00
2023-12-14T04:48:22.744Z,99.83
2023-12-14T04:50:50.681Z,100.00
2023-12-14T04:53:18.671Z,100.00
2023-12-14T04:55:46.719Z,99.62
2023-12-14T04:58:14.756Z,100.00
2023-12-14T05:00:44.609Z,99.80
2023-12-14T05:03:13.239Z,99.60
2023-12-14T05:05:41.280Z,99.96
2023-12-14T05:08:09.459Z,100.00
2023-12-14T05:10:37.665Z,99.58
2023-12-14T05:13:05.795Z,99.97
2023-12-14T05:15:33.904Z,99.84
2023-12-14T05:18:03.214Z,100.00
2023-12-14T05:20:31.218Z,100.00
2023-12-14T05:22:59.366Z,100.00
2023-12-14T05:25:27.304Z,100.00
2023-12-14T05:27:55.143Z,100.00
2023-12-14T05:30:23.042Z,100.00
2023-12-14T05:32:51.141Z,100.00
2023-12-14T05:35:20.536Z,99.69
2023-12-14T05:37:48.477Z,100.00
2023-12-14T05:40:16.406Z,99.80
2023-12-14T05:42:44.297Z,99.62
2023-12-14T05:45:12.972Z,100.00
2023-12-14T05:47:43.145Z,99.38
2023-12-14T05:50:11.591Z,100.00
2023-12-14T05:52:41.793Z,99.40
2023-12-14T05:55:11.690Z,99.79
2023-12-14T05:57:39.557Z,99.86
2023-12-14T06:00:09.350Z,99.30
2023-12-14T06:02:38.482Z,99.53
2023-12-14T06:05:09.501Z,99.50
2023-12-14T06:07:37.413Z,99.40
2023-12-14T06:10:08.015Z,100.00
2023-12-14T06:12:36.014Z,99.79
2023-12-14T06:15:04.291Z,100.00
2023-12-14T06:17:33.421Z,100.00
2023-12-14T06:20:01.446Z,100.00
2023-12-14T06:22:29.389Z,100.00
2023-12-14T06:24:57.286Z,100.00
2023-12-14T06:27:27.695Z,100.00
2023-12-14T06:29:55.596Z,100.00
2023-12-14T06:32:23.516Z,100.00
2023-12-14T06:34:52.632Z,100.00
2023-12-14T06:37:20.478Z,100.00
2023-12-14T06:39:48.560Z,100.00
2023-12-14T06:42:16.460Z,100.00
2023-12-14T06:44:45.617Z,100.00
2023-12-14T06:47:14.999Z,100.00
2023-12-14T06:49:43.017Z,100.00
2023-12-14T06:52:11.324Z,100.00
2023-12-14T06:54:39.693Z,100.00
2023-12-14T06:57:08.370Z,100.00
2023-12-14T06:59:36.243Z,100.00
2023-12-14T07:02:05.869Z,100.00
2023-12-14T07:04:33.791Z,100.00
2023-12-14T07:07:01.683Z,99.88
2023-12-14T07:09:29.748Z,100.00
2023-12-14T07:11:57.715Z,100.00
2023-12-14T07:14:26.497Z,100.00
2023-12-14T07:16:54.594Z,100.00
2023-12-14T07:19:23.923Z,100.00
2023-12-14T07:21:51.769Z,100.00
2023-12-14T07:24:19.654Z,100.00
2023-12-14T07:26:47.690Z,100.00
2023-12-14T07:29:15.577Z,100.00
2023-12-14T07:31:43.549Z,100.00
2023-12-14T07:34:11.445Z,100.00
2023-12-14T07:36:40.979Z,100.00
2023-12-14T07:39:10.184Z,100.00
2023-12-14T07:41:38.076Z,100.00
2023-12-14T07:44:07.013Z,100.00
2023-12-14T07:46:36.213Z,100.00
2023-12-14T07:49:04.142Z,100.00
2023-12-14T07:51:32.082Z,100.00
2023-12-14T07:54:01.247Z,100.00
2023-12-14T07:56:29.113Z,100.00
2023-12-14T07:58:57.104Z,100.00
2023-12-14T08:01:25.117Z,100.00
2023-12-14T08:03:52.993Z,99.04
2023-12-14T08:06:20.896Z,100.00
2023-12-14T08:08:48.755Z,99.72
2023-12-14T08:11:17.992Z,99.68
2023-12-14T08:13:45.865Z,99.83
2023-12-14T08:16:13.767Z,100.00
2023-12-14T08:18:43.357Z,99.89
2023-12-14T08:21:13.311Z,100.00
2023-12-14T08:23:41.329Z,100.00
2023-12-14T08:26:09.426Z,100.00
2023-12-14T08:28:38.737Z,100.00
2023-12-14T08:31:06.762Z,100.00
2023-12-14T08:33:34.732Z,100.00
2023-12-14T08:36:02.728Z,100.00
2023-12-14T08:38:30.726Z,100.00
2023-12-14T08:40:58.613Z,100.00
2023-12-14T08:43:26.566Z,100.00
2023-12-14T08:45:55.860Z,100.00
2023-12-14T08:48:23.736Z,100.00
2023-12-14T08:50:51.725Z,100.00
2023-12-14T08:53:19.654Z,100.00
2023-12-14T08:58:15.326Z,100.00
2023-12-14T09:00:43.135Z,100.00
2023-12-14T09:03:12.635Z,100.00
2023-12-14T09:05:43.373Z,99.96
2023-12-14T09:08:11.570Z,100.00
2023-12-14T09:10:40.162Z,99.92
2023-12-14T09:13:08.129Z,99.96
2023-12-14T09:15:36.606Z,99.38
2023-12-14T09:18:04.887Z,100.00
2023-12-14T09:20:36.290Z,100.00
2023-12-14T09:23:04.240Z,100.00
2023-12-14T09:25:32.163Z,99.96
2023-12-14T09:28:00.119Z,99.79
2023-12-14T09:30:28.238Z,99.00
2023-12-14T09:32:56.271Z,99.90
2023-12-14T09:35:24.839Z,99.58
2023-12-14T09:37:54.738Z,99.25
2023-12-14T09:40:23.300Z,99.56
2023-12-14T09:42:51.577Z,99.88
2023-12-14T09:45:19.888Z,99.61
2023-12-14T09:47:48.582Z,100.00
2023-12-14T09:50:18.032Z,99.00
2023-12-14T09:52:46.880Z,99.40
2023-12-14T09:55:16.309Z,99.10
2023-12-14T09:57:44.246Z,99.46
2023-12-14T10:00:15.255Z,100.00
2023-12-14T10:02:44.031Z,98.71
2023-12-14T10:05:12.707Z,98.18
2023-12-14T10:07:44.548Z,97.72
2023-12-14T10:10:14.480Z,97.65
2023-12-14T10:12:54.977Z,98.35
2023-12-14T10:15:25.337Z,98.57
2023-12-14T10:17:55.334Z,97.88
2023-12-14T10:20:24.521Z,97.23
2023-12-14T10:22:53.050Z,98.09
2023-12-14T10:25:21.298Z,97.72
2023-12-14T10:27:49.682Z,98.31
2023-12-14T10:30:19.759Z,97.58
2023-12-14T10:32:50.135Z,98.59
2023-12-14T10:35:20.465Z,97.84
2023-12-14T10:37:51.473Z,98.00
2023-12-14T10:40:19.490Z,98.39
2023-12-14T10:42:48.010Z,96.15
2023-12-14T10:45:19.991Z,96.54
2023-12-14T10:47:54.586Z,96.38
2023-12-14T10:50:24.640Z,96.94
2023-12-14T10:52:52.785Z,95.24
2023-12-14T10:55:27.538Z,95.54
2023-12-14T10:57:55.523Z,95.86
2023-12-14T11:00:23.655Z,95.18
2023-12-14T11:02:54.093Z,94.03
2023-12-14T11:05:30.492Z,95.21
2023-12-14T11:08:05.136Z,94.56
2023-12-14T11:10:39.662Z,94.50
2023-12-14T11:13:12.151Z,95.39
2023-12-14T11:15:40.804Z,93.50
2023-12-14T11:18:29.908Z,92.01
2023-12-14T11:21:00.050Z,93.23
2023-12-14T11:23:31.799Z,89.41
2023-12-14T11:26:04.600Z,86.16
2023-12-14T11:28:34.244Z,85.84
2023-12-14T11:31:03.096Z,86.18
2023-12-14T11:33:34.120Z,84.50
2023-12-14T11:36:05.372Z,84.29
2023-12-14T11:38:33.583Z,85.24
2023-12-14T11:41:01.548Z,83.22
2023-12-14T11:43:29.526Z,84.88
2023-12-14T11:45:57.691Z,83.65
2023-12-14T11:48:25.716Z,83.25
2023-12-14T11:50:55.604Z,83.81
2023-12-14T11:53:24.227Z,84.01
2023-12-14T11:55:53.772Z,84.47
2023-12-14T11:58:21.802Z,83.30
2023-12-14T12:00:49.677Z,82.83
2023-12-14T12:03:20.884Z,82.36
2023-12-14T12:05:50.435Z,83.12
2023-12-14T12:08:21.781Z,85.02
2023-12-14T12:10:51.608Z,83.48
2023-12-14T12:13:22.263Z,84.99
2023-12-14T12:15:50.460Z,82.92
2023-12-14T12:18:19.658Z,84.76
2023-12-14T12:20:47.900Z,85.78
2023-12-14T12:23:17.416Z,85.37
2023-12-14T12:25:46.891Z,87.09
2023-12-14T12:28:15.008Z,87.13
2023-12-14T12:33:11.420Z,88.13
2023-12-14T12:35:39.366Z,91.74
2023-12-14T12:38:07.234Z,89.76
2023-12-14T12:40:35.197Z,89.23
2023-12-14T12:43:04.569Z,88.62
2023-12-14T12:45:33.355Z,90.95
2023-12-14T12:48:01.398Z,88.37
2023-12-14T12:50:29.295Z,88.34
2023-12-14T12:52:57.333Z,89.02
2023-12-14T12:55:25.207Z,89.63
2023-12-14T12:57:53.216Z,90.69
2023-12-14T13:00:24.097Z,91.09
2023-12-14T13:02:52.355Z,91.09
2023-12-14T13:05:21.160Z,91.18
2023-12-14T13:07:49.258Z,91.37
2023-12-14T13:10:26.042Z,91.34
2023-12-14T13:12:59.407Z,90.57
2023-12-14T13:15:31.904Z,90.85
2023-12-14T13:18:00.558Z,91.07
2023-12-14T13:20:29.035Z,90.97
2023-12-14T13:22:57.166Z,90.09
2023-12-14T13:25:27.331Z,91.72
2023-12-14T13:27:55.286Z,92.90
2023-12-14T13:30:24.120Z,92.32
2023-12-14T13:32:55.008Z,92.59
2023-12-14T13:35:23.656Z,93.49
2023-12-14T13:37:51.715Z,93.39
2023-12-14T13:40:19.869Z,93.56
2023-12-14T13:42:55.322Z,93.21
2023-12-14T13:45:32.447Z,92.88
2023-12-14T13:48:01.743Z,94.22
2023-12-14T13:50:30.125Z,94.51
2023-12-14T13:52:58.442Z,94.91
2023-12-14T13:55:26.444Z,94.28
2023-12-14T13:57:54.818Z,93.81
2023-12-14T14:00:23.028Z,94.50
2023-12-14T14:02:51.208Z,94.82
2023-12-14T14:05:20.630Z,94.73
2023-12-14T14:07:48.898Z,95.86
2023-12-14T14:10:17.070Z,95.42
2023-12-14T14:12:45.803Z,95.42
2023-12-14T14:15:14.260Z,95.57
2023-12-14T14:17:42.392Z,95.65
2023-12-14T14:20:11.141Z,96.45
2023-12-14T14:22:40.640Z,96.97
2023-12-14T14:25:09.095Z,95.66
2023-12-14T14:27:37.442Z,96.51
2023-12-14T14:30:06.971Z,94.64
2023-12-14T14:32:37.112Z,94.46
2023-12-14T14:35:06.207Z,93.55
2023-12-14T14:37:34.085Z,94.34
2023-12-14T14:40:05.080Z,93.89
2023-12-14T14:42:33.186Z,93.97
2023-12-14T14:45:01.374Z,94.39
2023-12-14T14:47:29.770Z,92.00
2023-12-14T14:50:04.147Z,91.96
2023-12-14T14:52:32.692Z,92.35
2023-12-14T14:55:00.983Z,93.78
2023-12-14T14:57:30.489Z,92.92
2023-12-14T14:59:58.464Z,92.05
2023-12-14T15:02:26.811Z,92.27
2023-12-14T15:04:54.684Z,93.44
2023-12-14T15:07:22.580Z,93.16
2023-12-14T15:09:50.471Z,93.94
2023-12-14T15:12:18.560Z,93.91
2023-12-14T15:14:47.772Z,93.93
2023-12-14T15:17:15.722Z,95.33
2023-12-14T15:19:43.874Z,94.50
2023-12-14T15:22:11.750Z,94.80
2023-12-14T15:24:39.948Z,94.90
2023-12-14T15:27:09.916Z,95.07
2023-12-14T15:29:37.902Z,94.46
2023-12-14T15:32:07.307Z,94.56
2023-12-14T15:34:35.190Z,93.96
2023-12-14T15:37:03.015Z,93.68
2023-12-14T15:39:31.024Z,93.02
2023-12-14T15:41:58.928Z,93.44
2023-12-14T15:44:26.890Z,92.72
2023-12-14T15:46:54.873Z,93.48
2023-12-14T15:49:24.185Z,92.37
2023-12-14T15:51:52.041Z,92.80
2023-12-14T15:54:19.928Z,93.28
2023-12-14T15:56:47.722Z,93.05
2023-12-14T15:59:15.673Z,93.38
2023-12-14T16:01:46.413Z,94.25
2023-12-14T16:04:15.311Z,94.07
2023-12-14T16:06:44.742Z,94.04
2023-12-14T16:09:12.590Z,94.68
2023-12-14T16:11:40.515Z,94.81
2023-12-14T16:14:08.416Z,94.25
2023-12-14T16:16:36.265Z,95.41
2023-12-14T16:19:04.341Z,94.57
2023-12-14T16:21:33.298Z,93.94
2023-12-14T16:24:02.439Z,94.37
2023-12-14T16:26:30.469Z,94.00
2023-12-14T16:28:59.288Z,94.94
2023-12-14T16:31:27.242Z,94.81
2023-12-14T16:33:55.137Z,95.18
2023-12-14T16:36:23.837Z,95.71
2023-12-14T16:38:51.741Z,95.44
2023-12-14T16:41:23.464Z,96.26
2023-12-14T16:43:51.486Z,97.24
2023-12-14T16:46:20.168Z,96.56
2023-12-14T16:48:48.506Z,96.53
2023-12-14T16:51:16.473Z,96.54
2023-12-14T16:53:44.939Z,95.23
2023-12-14T16:56:12.746Z,95.42
2023-12-14T16:58:42.130Z,96.13
2023-12-14T17:01:10.063Z,96.66
2023-12-14T17:03:38.036Z,96.85
2023-12-14T17:06:08.968Z,97.07
2023-12-14T17:08:36.888Z,96.61
2023-12-14T17:11:04.973Z,95.93
2023-12-14T17:13:32.861Z,97.25
2023-12-14T17:16:02.069Z,97.03
2023-12-14T17:18:30.054Z,97.27
2023-12-14T17:20:58.085Z,96.79
2023-12-14T17:23:27.055Z,96.03
2023-12-14T17:25:54.911Z,95.55
2023-12-14T17:28:23.433Z,94.37
2023-12-14T17:30:51.748Z,94.16
2023-12-14T17:33:21.586Z,94.17
2023-12-14T17:35:49.484Z,91.42
2023-12-14T17:38:17.409Z,92.04
2023-12-14T17:40:45.273Z,90.38
2023-12-14T17:43:13.588Z,90.39
2023-12-14T17:45:41.494Z,90.17
2023-12-14T17:48:09.475Z,90.10
2023-12-14T17:50:39.444Z,90.67
2023-12-14T17:53:08.056Z,91.37
2023-12-14T17:55:36.899Z,91.65
2023-12-14T17:58:05.189Z,91.57
2023-12-14T18:00:33.871Z,90.98
2023-12-14T18:03:05.140Z,92.23
2023-12-14T18:05:34.005Z,93.39
2023-12-14T18:08:03.743Z,92.53
2023-12-14T18:10:32.097Z,92.48
2023-12-14T18:13:03.745Z,93.26
2023-12-14T18:15:33.917Z,93.69
2023-12-14T18:18:02.725Z,94.13
2023-12-14T18:20:31.164Z,94.14
2023-12-14T18:22:59.383Z,93.59
2023-12-14T18:25:29.121Z,93.26
2023-12-14T18:28:02.952Z,92.20
2023-12-14T18:30:31.579Z,93.34
2023-12-14T18:33:00.101Z,93.10
2023-12-14T18:35:29.357Z,92.17
2023-12-14T18:37:57.754Z,92.14
2023-12-14T18:40:26.362Z,92.30
2023-12-14T18:42:56.225Z,92.22
2023-12-14T18:45:24.445Z,91.65
2023-12-14T18:47:52.964Z,91.77
2023-12-14T18:50:21.736Z,93.54
2023-12-14T18:52:49.853Z,93.85
2023-12-14T18:55:17.960Z,93.65
2023-12-14T18:57:46.887Z,93.77
2023-12-14T19:00:17.098Z,94.03
2023-12-14T19:02:44.972Z,94.42
2023-12-14T19:05:14.448Z,93.69
2023-12-14T19:07:42.318Z,93.65
2023-12-14T19:10:11.876Z,93.70
2023-12-14T19:12:40.187Z,94.24
2023-12-14T19:15:10.155Z,93.67
2023-12-14T19:17:41.605Z,93.84
2023-12-14T19:20:10.907Z,95.00
2023-12-14T19:22:39.803Z,94.84
2023-12-14T19:25:09.188Z,93.88
2023-12-14T19:27:37.481Z,94.65
2023-12-14T19:30:06.599Z,95.32
2023-12-14T19:32:34.979Z,94.57
2023-12-14T19:35:05.387Z,94.18
2023-12-14T19:37:34.157Z,94.24
2023-12-14T19:40:03.848Z,94.48
2023-12-14T19:42:33.350Z,95.01
2023-12-14T19:45:01.866Z,94.88
2023-12-14T19:47:29.845Z,95.17
2023-12-14T19:50:00.755Z,94.82
2023-12-14T19:52:30.533Z,95.57
2023-12-14T19:54:58.794Z,95.73
2023-12-14T19:57:27.380Z,96.87
2023-12-14T19:59:55.184Z,96.07
2023-12-14T20:02:23.055Z,96.82
2023-12-14T20:04:51.012Z,96.66
2023-12-14T20:07:20.292Z,95.38
2023-12-14T20:09:57.781Z,93.65
2023-12-14T20:12:32.126Z,92.68
2023-12-14T20:15:00.382Z,93.28
2023-12-14T20:17:28.682Z,93.57
2023-12-14T20:19:56.682Z,93.50
2023-12-14T20:22:25.362Z,94.58
2023-12-14T20:24:54.578Z,93.21
2023-12-14T20:27:22.415Z,94.60
2023-12-14T20:29:51.011Z,93.44
2023-12-14T20:32:18.971Z,93.34
2023-12-14T20:34:47.059Z,91.73
2023-12-14T20:37:14.972Z,90.40
2023-12-14T20:39:43.129Z,90.77
2023-12-14T20:42:12.386Z,89.84
2023-12-14T20:44:40.298Z,92.00
2023-12-14T20:47:08.293Z,91.17
2023-12-14T20:49:36.565Z,90.79
2023-12-14T20:52:04.688Z,91.64
2023-12-14T20:54:32.925Z,90.67
2023-12-14T20:57:01.120Z,92.46
2023-12-14T20:59:30.728Z,92.80
2023-12-14T21:01:59.313Z,92.60
2023-12-14T21:04:27.603Z,91.31
2023-12-14T21:06:55.861Z,90.30
2023-12-14T21:09:24.912Z,91.13
2023-12-14T21:11:53.193Z,90.47
2023-12-14T21:14:21.572Z,89.33
2023-12-14T21:16:52.512Z,90.16
2023-12-14T21:19:21.453Z,90.81
2023-12-14T21:21:49.888Z,90.96
2023-12-14T21:24:19.081Z,91.23
2023-12-14T21:27:08.160Z,92.03
2023-12-14T21:29:35.274Z,91.22
2023-12-14T21:32:04.983Z,91.63
2023-12-14T21:34:32.920Z,92.53
2023-12-14T21:37:00.786Z,92.35
2023-12-14T21:39:29.071Z,93.08
2023-12-14T21:41:57.198Z,92.66
2023-12-14T21:44:25.092Z,93.12
2023-12-14T21:46:53.343Z,93.07
2023-12-14T21:49:23.205Z,93.75
2023-12-14T21:51:51.109Z,93.43
2023-12-14T21:54:19.081Z,93.16
2023-12-14T21:56:46.983Z,94.31
2023-12-14T21:59:15.647Z,93.69
2023-12-14T22:01:43.518Z,93.74
2023-12-14T22:04:11.343Z,94.60
2023-12-14T22:06:40.739Z,94.21
2023-12-14T22:09:08.767Z,93.91
2023-12-14T22:11:36.738Z,93.16
2023-12-14T22:14:05.255Z,92.33
2023-12-14T22:16:33.630Z,92.66
2023-12-14T22:19:01.814Z,91.80
2023-12-14T22:21:29.775Z,90.18
2023-12-14T22:23:58.994Z,92.21
2023-12-14T22:26:26.921Z,90.91
2023-12-14T22:28:54.975Z,90.88
2023-12-14T22:31:22.912Z,91.81
2023-12-14T22:33:50.806Z,91.12
2023-12-14T22:36:18.723Z,91.79
2023-12-14T22:38:46.565Z,92.90
2023-12-14T22:41:17.776Z,92.04
2023-12-14T22:43:45.971Z,92.87
2023-12-14T22:46:13.777Z,92.04
2023-12-14T22:48:41.657Z,93.20
2023-12-14T22:51:17.216Z,93.51
2023-12-14T22:53:45.263Z,93.22
2023-12-14T22:56:23.681Z,93.01
2023-12-14T22:58:51.743Z,92.13
2023-12-14T23:01:32.889Z,93.82
2023-12-14T23:04:01.318Z,92.31
2023-12-14T23:06:29.334Z,92.63
2023-12-14T23:08:57.272Z,92.71
2023-12-14T23:11:26.661Z,91.77
2023-12-14T23:13:54.896Z,91.83
2023-12-14T23:16:23.632Z,92.00
2023-12-14T23:18:51.749Z,91.76
2023-12-14T23:21:19.722Z,92.19
2023-12-14T23:23:47.566Z,91.58
2023-12-14T23:26:15.568Z,91.28
2023-12-14T23:28:44.786Z,91.43
2023-12-14T23:31:12.586Z,91.15
2023-12-14T23:33:40.536Z,91.65
2023-12-14T23:36:09.187Z,91.04
2023-12-14T23:38:37.066Z,92.12
2023-12-14T23:41:05.473Z,92.13
2023-12-14T23:43:33.752Z,91.96
2023-12-14T23:46:02.990Z,92.21
2023-12-14T23:48:30.892Z,91.76
2023-12-14T23:50:59.028Z,91.60
2023-12-14T23:53:26.903Z,91.86
2023-12-14T23:55:55.001Z,92.02
2023-12-14T23:58:22.948Z,92.40
